Flight Track Log - Related Links

Times and Time Zones

All times are in EDT time to prevent confusion due to time zone crossing. See the N531QS flight status page for this flight to view local times or setup timezone preferences in your user account.

Time Position Orientation Groundspeed Altitude Reporting Facility
EDT Latitude Longitude Course Direction KTS MPH feet Rate Location/Type
Fri 02:08:00 AM 26.1917 -70.4535 348° North  Level Estimated
Fri 02:08:34 AM 22.5231 -77.2300 349° North 486 559 44,900  Level Miami Center
Fri 02:09:00 AM 26.3180 -70.4811 349° North  Level Estimated
Fri 02:09:35 AM 22.6483 -77.2461 353° North 468 539 45,000  Level Miami Center
Fri 02:10:00 AM 26.4443 -70.5088 349° North  Level Estimated
Fri 02:10:35 AM 22.7717 -77.2600 354° North 456 525 45,000  Level Miami Center
Fri 02:11:00 AM 26.5707 -70.5365 349° North  Level Estimated
Fri 02:11:34 AM 22.8969 -77.2761 353° North 456 525 45,000  Level Miami Center
Fri 02:12:00 AM 26.6970 -70.5642 349° North  Level Estimated
Fri 02:12:33 AM 23.0242 -77.2922 353° North 451 519 45,000  Level Miami Center
Fri 02:13:00 AM 26.8233 -70.5920 349° North  Level Estimated
Fri 02:13:35 AM 23.1517 -77.3108 352° North 451 519 45,000  Level Miami Center
Fri 02:14:00 AM 26.9496 -70.6199 349° North  Level Estimated
Fri 02:14:33 AM 23.2811 -77.3272 353° North 462 532 44,900  Level Miami Center
Fri 02:15:36 AM 23.4086 -77.3411 354° North 462 532 45,000 49 Climbing Miami Center
Fri 02:16:36 AM 23.5403 -77.3597 353° North 467 537 45,000  Level Miami Center
Fri 02:17:35 AM 23.6531 -77.3692 356° North 460 529 45,000  Level Miami Center
Fri 02:18:33 AM 23.7847 -77.3697 360° North 460 529 45,000  Level Miami Center
Fri 02:19:36 AM 23.9142 -77.3750 358° North 460 529 45,000  Level Miami Center
Fri 02:20:36 AM 24.0439 -77.3822 357° North 460 529 45,000  Level Miami Center
Fri 02:21:34 AM 24.1756 -77.3897 357° North 460 529 45,000  Level Miami Center
Fri 02:22:33 AM 24.3008 -77.3903 360° North 460 529 45,000  Level Miami Center
Fri 02:23:33 AM 24.4283 -77.3975 357° North 460 529 45,000  Level Miami Center
Fri 02:24:33 AM 24.5661 -77.4050 357° North 460 529 45,000  Level Miami Center
Fri 02:25:36 AM 24.6936 -77.4100 358° North 460 529 45,000 133 Level Miami Center
Fri 02:27:33 AM 24.9528 -77.4203 358° North 455 524 45,400 305 Climbing Miami Center
Fri 02:28:33 AM 25.0803 -77.4256 358° North 463 533 45,900 492 Climbing Miami Center
Fri 02:29:35 AM 25.2014 -77.4306 358° North 469 540 46,400 500 Climbing Miami Center
Fri 02:30:33 AM 25.3247 -77.4358 358° North 462 532 46,900 305 Climbing Miami Center
Fri 02:31:33 AM 25.4542 -77.4433 357° North 457 526 47,000 33 Climbing Miami Center
Fri 02:33:35 AM 25.7069 -77.4561 357° North 457 526 47,000  Level Miami Center
Fri 02:34:33 AM 25.8325 -77.4614 358° North 457 526 47,000  Level Miami Center
Fri 02:35:35 AM 25.9619 -77.4642 359° North 457 526 47,000  Level Miami Center
Fri 02:36:33 AM 26.0894 -77.4742 356° North 463 533 47,000  Level Miami Center
Fri 02:37:34 AM 26.2189 -77.4817 357° North 463 533 47,000  Level Miami Center
Fri 02:38:33 AM 26.3506 -77.4825 360° North 463 533 47,000  Level Miami Center
Fri 02:39:34 AM 26.4842 -77.4925 356° North 463 533 47,000  Level Miami Center
Fri 02:40:33 AM 26.6117 -77.4956 359° North 463 533 47,000  Level Miami Center
Fri 02:41:35 AM 26.7433 -77.5008 358° North 463 533 47,000  Level Miami Center
Fri 02:42:33 AM 26.8747 -77.5086 357° North 463 533 47,000  Level Miami Center
Fri 02:43:35 AM 27.0083 -77.5164 357° North 463 533 47,000  Level Miami Center
Fri 02:44:35 AM 27.1422 -77.5194 359° North 468 539 47,000  Level Miami Center
Fri 02:45:33 AM 27.2758 -77.5294 356° North 474 545 47,000  Level Miami Center
Fri 02:46:33 AM 27.4094 -77.5372 357° North 479 551 47,000  Level Miami Center
Fri 02:47:33 AM 27.5431 -77.5450 357° North 479 551 47,000  Level Miami Center
Fri 02:48:36 AM 27.6789 -77.5436 North 479 551 47,000  Level Miami Center
Fri 02:49:33 AM 27.8208 -77.5514 357° North 474 545 47,000  Level Miami Center
Fri 02:50:33 AM 27.9628 -77.5569 358° North 483 556 47,000  Level Miami Center
Fri 02:51:36 AM 28.0922 -77.5694 355° North 483 556 47,000  Level Miami Center
Fri 02:52:36 AM 28.2297 -77.6103 345° North 492 566 47,000  Level Miami Center
Fri 02:53:34 AM 28.3547 -77.6536 343° North 470 541 47,000  Level Miami Center
Fri 02:54:33 AM 28.4839 -77.6947 344° North 480 552 47,000  Level Miami Center
Fri 02:55:34 AM 28.6153 -77.7408 343° North 475 547 47,000  Level Miami Center
Fri 02:56:33 AM 28.7358 -77.7842 343° North 481 554 47,000  Level Miami Center
Fri 02:57:33 AM 28.8714 -77.8019 353° North 481 554 47,000  Level Miami Center
Fri 02:58:33 AM 29.0050 -77.8008 360° North 475 547 47,000  Level Miami Center
Fri 02:59:35 AM 29.1344 -77.8019 360° North 470 541 47,000  Level Miami Center
Fri 03:00:34 AM 29.2658 -77.8078 358° North 457 526 47,000 -50 Level Miami Center
Fri 03:01:34 AM 29.3972 -77.8064 North 463 533 46,900  Descending Miami Center
Fri 03:03:10 AM 29.6014 -77.8008 North 466 536 47,000 38 Climbing Jacksonville Center
Fri 03:04:10 AM 29.7394 -77.8078 357° North 473 544 47,000  Level Jacksonville Center
Fri 03:05:10 AM 29.8708 -77.8081 360° North 482 555 47,000  Level Jacksonville Center
Fri 03:06:10 AM 30.0022 -77.8083 360° North 476 548 47,000  Level Jacksonville Center
Fri 03:07:10 AM 30.1403 -77.8108 359° North 481 554 47,000  Level Jacksonville Center
Fri 03:08:10 AM 30.2781 -77.8131 359° North 481 554 47,000  Level Jacksonville Center
Fri 03:09:10 AM 30.4114 -77.8108 North 481 554 47,000  Level Jacksonville Center
Fri 03:10:10 AM 30.5469 -77.8083 North 481 554 47,000  Level Jacksonville Center
Fri 03:11:10 AM 30.6831 -77.8133 358° North 481 554 47,000  Level Jacksonville Center
Fri 03:12:10 AM 30.8183 -77.8058 North 483 556 47,000  Level Jacksonville Center
Fri 03:13:10 AM 30.9544 -77.8156 356° North 481 554 47,000  Level Jacksonville Center
Fri 03:14:10 AM 31.0903 -77.8203 358° North 485 558 47,000  Level Jacksonville Center
Fri 03:15:10 AM 31.2258 -77.8203 360° North 485 558 47,000  Level Jacksonville Center
Fri 03:16:10 AM 31.3617 -77.8253 358° North 485 558 47,000  Level Jacksonville Center
Fri 03:17:10 AM 31.4975 -77.8300 358° North 480 552 47,000  Level Jacksonville Center
Fri 03:18:10 AM 31.6333 -77.8300 360° North 478 550 47,000  Level Jacksonville Center
Fri 03:19:10 AM 31.7669 -77.8347 358° North 483 556 47,000  Level Jacksonville Center
Fri 03:20:10 AM 31.9025 -77.8297 North 474 545 47,000  Level Jacksonville Center
Fri 03:21:10 AM 32.0383 -77.8344 358° North 480 552 47,000  Level Jacksonville Center
Fri 03:22:10 AM 32.1744 -77.8419 357° North 480 552 47,000  Level Jacksonville Center
Fri 03:23:10 AM 32.3078 -77.8392 North 480 552 47,000  Level Jacksonville Center
Fri 03:24:10 AM 32.4436 -77.8442 358° North 480 552 47,000  Level Jacksonville Center
Fri 03:25:10 AM 32.5772 -77.8417 North 480 552 47,000  Level Jacksonville Center
Fri 03:26:10 AM 32.7131 -77.8489 357° North 480 552 47,000  Level Jacksonville Center
Fri 03:27:10 AM 32.8489 -77.8511 359° North 480 552 47,000  Level Jacksonville Center
Fri 03:29:39 AM 33.1742 -77.8564 359° North 501 577 47,000  Level Washington Center
Fri 03:30:40 AM 33.3097 -77.8603 359° North 488 562 47,000  Level Washington Center
Fri 03:31:39 AM 33.4453 -77.8614 360° North 488 562 47,000  Level Washington Center
Fri 03:32:39 AM 33.5828 -77.8625 360° North 488 562 47,000  Level Washington Center
Fri 03:33:39 AM 33.7164 -77.8636 360° North 488 562 47,000  Level Washington Center
Fri 03:34:39 AM 33.8644 -77.8653 359° North 482 555 47,000  Level Washington Center
Fri 03:35:42 AM 34.0042 -77.8689 359° North 482 555 47,000  Level Washington Center
Fri 03:36:39 AM 34.1419 -77.8578 North 482 555 47,000  Level Washington Center
Fri 03:37:39 AM 34.2767 -77.8011 19° North 488 562 47,000  Level Washington Center
Fri 03:38:39 AM 34.4044 -77.7744 10° North 508 585 47,000  Level Washington Center
Fri 03:39:39 AM 34.5406 -77.7453 10° North 502 578 47,000  Level Washington Center
Fri 03:40:41 AM 34.6789 -77.7161 10° North 502 578 47,000  Level Washington Center
Fri 03:41:39 AM 34.8256 -77.6744 13° North 497 572 47,000  Level Washington Center
Fri 03:42:41 AM 34.9617 -77.6422 11° North 491 565 47,000  Level Washington Center
Fri 03:43:39 AM 35.1019 -77.6128 10° North 491 565 47,000  Level Washington Center
Fri 03:44:39 AM 35.2381 -77.5806 11° North 491 565 47,000  Level Washington Center
Fri 03:45:41 AM 35.3722 -77.5508 10° North 491 565 47,000  Level Washington Center
Fri 03:46:39 AM 35.5106 -77.5186 11° North 491 565 47,000  Level Washington Center
Fri 03:47:42 AM 35.6444 -77.4886 10° North 491 565 47,000  Level Washington Center
Fri 03:48:39 AM 35.7786 -77.4558 11° North 491 565 47,000  Level Washington Center
Fri 03:49:39 AM 35.9147 -77.4258 10° North 491 565 47,000  Level Washington Center
Fri 03:50:42 AM 36.0508 -77.3931 11° North 491 565 47,000  Level Washington Center
Fri 03:51:39 AM 36.1575 -77.3697 10° North 491 565 47,000  Level Washington Center
Fri 03:52:39 AM 36.3019 -77.3342 11° North 485 558 47,000  Level Washington Center
Fri 03:53:39 AM 36.4339 -77.3011 11° North 485 558 47,000  Level Washington Center
Fri 03:54:39 AM 36.5700 -77.2731 North 485 558 47,000  Level Washington Center
Fri 03:55:42 AM 36.7186 -77.2372 11° North 494 568 47,000  Level Washington Center
Fri 03:56:39 AM 36.8525 -77.2039 11° North 494 568 47,000  Level Washington Center
Fri 03:57:39 AM 36.9864 -77.1703 11° North 489 563 47,000  Level Washington Center
Fri 03:58:41 AM 37.1225 -77.1392 10° North 489 563 47,000  Level Washington Center
Fri 03:59:39 AM 37.2564 -77.1053 11° North 498 573 47,000  Level Washington Center
Fri 04:00:41 AM 37.3925 -77.0661 13° North 503 579 47,000  Level Washington Center
Fri 04:01:41 AM 37.5222 -77.0425 North 503 579 47,000  Level Washington Center
Fri 04:02:39 AM 37.6603 -77.0083 11° North 509 586 47,000  Level Washington Center
Fri 04:03:39 AM 37.7919 -76.9742 12° North 497 572 47,000 -550 Level Washington Center
Fri 04:04:39 AM 37.9278 -76.9397 11° North 492 566 45,900 -1,317 Descending Washington Center
Fri 04:05:42 AM 38.0639 -76.9053 11° North 487 560 44,300 -1,600 Descending Washington Center
Fri 04:06:39 AM 38.2039 -76.8681 12° North 498 573 42,700 -1,692 Descending Washington Center
Fri 04:07:39 AM 38.3444 -76.7831 25° Northeast 504 580 41,000 -1,707 Descending Washington Center
Fri 04:08:42 AM 38.4625 -76.6708 37° Northeast 504 580 39,200 -1,850 Descending Washington Center
Fri 04:09:39 AM 38.5822 -76.5558 37° Northeast 524 603 37,300 -1,846 Descending Washington Center
Fri 04:10:39 AM 38.7019 -76.4403 37° Northeast 529 609 35,600 -1,850 Descending Washington Center
Fri 04:11:39 AM 38.8236 -76.3244 37° Northeast 534 615 33,600 -1,951 Descending Washington Center
Fri 04:12:42 AM 38.9450 -76.2056 37° Northeast 540 621 31,600 -1,967 Descending Washington Center
Fri 04:13:41 AM 39.0686 -76.0889 36° Northeast 540 621 29,600 -2,017 Descending Washington Center
Fri 04:14:41 AM 39.1878 -75.9719 37° Northeast 540 621 27,600 -1,950 Descending Washington Center
Fri 04:15:41 AM 39.3008 -75.8625 37° Northeast 527 606 25,700 -1,850 Descending Washington Center
Fri 04:16:41 AM 39.4114 -75.7556 37° Northeast 510 587 23,900 -1,881 Descending Washington Center
Fri 04:17:39 AM 39.5197 -75.6481 37° Northeast 497 572 22,000 -1,831 Descending Washington Center
Fri 04:18:39 AM 39.6219 -75.5431 38° Northeast 483 556 20,300 -1,700 Descending Washington Center
Fri 04:19:39 AM 39.7258 -75.4406 37° Northeast 478 550 18,600 -1,686 Descending Washington Center
Fri 04:20:40 AM 39.8258 -75.3431 37° Northeast 465 535 16,900 -1,650 Descending Washington Center
Fri 04:21:39 AM 39.9214 -75.2453 38° Northeast 452 520 15,300 -1,462 Descending Washington Center
Fri 04:22:39 AM 40.0086 -75.1581 37° Northeast 441 507 14,000 -1,300 Descending Washington Center
Fri 04:23:39 AM 40.1000 -75.0653 38° Northeast 430 495 12,700 -1,479 Descending Washington Center
Fri 04:25:01 AM 40.2333 -74.9333 37° Northeast 390 449 10,500 -1,343 Descending New York TRACON
Fri 04:26:02 AM 40.3000 -74.8500 44° Northeast 331 381 9,500 -1,091 Descending New York TRACON
Fri 04:27:02 AM 40.3500 -74.7500 57° Northeast 316 364 8,300 -1,636 Descending New York TRACON
Fri 04:28:14 AM 40.3833 -74.6167 72° East 308 354 5,900 -1,762 Descending New York TRACON
Fri 04:29:08 AM 40.4000 -74.5333 75° East 286 329 4,600 -1,150 Descending New York TRACON
Fri 04:30:14 AM 40.4167 -74.4167 79° East 272 313 3,600 -762 Descending New York TRACON
Fri 04:31:14 AM 40.4500 -74.3333 62° Northeast 252 290 3,000 -400 Descending New York TRACON
Fri 04:32:14 AM 40.4833 -74.2833 49° Northeast 212 244 2,800 -100 Descending New York TRACON
Fri 04:33:14 AM 40.5333 -74.2667 14° North 189 217 2,800 -350 Level New York TRACON
Fri 04:34:14 AM 40.5833 -74.2333 27° Northeast 196 226 2,100 -850 Descending New York TRACON
Fri 04:35:14 AM 40.6333 -74.2000 27° Northeast 179 206 1,100 -1,000 Descending New York TRACON

Login

Don't have an account? Register now (free) for customized features, flight alerts, and more!